sensor_id;sensor_type;location;lat;lon;timestamp;P1;durP1;ratioP1;P2;durP2;ratioP2
12363;SDS011;6246;50.826;4.712;2023-04-08T00:01:11;2.47;;;1.07;;
12363;SDS011;6246;50.826;4.712;2023-04-08T00:03:37;1.43;;;1.00;;
12363;SDS011;6246;50.826;4.712;2023-04-08T00:06:03;1.43;;;1.30;;
12363;SDS011;6246;50.826;4.712;2023-04-08T00:08:29;1.13;;;0.87;;
12363;SDS011;6246;50.826;4.712;2023-04-08T00:10:55;2.90;;;1.00;;
12363;SDS011;6246;50.826;4.712;2023-04-08T00:13:21;2.23;;;1.00;;
12363;SDS011;6246;50.826;4.712;2023-04-08T00:15:47;2.50;;;1.40;;
12363;SDS011;6246;50.826;4.712;2023-04-08T00:18:13;1.63;;;1.10;;
12363;SDS011;6246;50.826;4.712;2023-04-08T00:20:41;1.47;;;1.03;;
12363;SDS011;6246;50.826;4.712;2023-04-08T00:23:08;2.30;;;1.40;;
12363;SDS011;6246;50.826;4.712;2023-04-08T00:25:34;1.83;;;1.17;;
12363;SDS011;6246;50.826;4.712;2023-04-08T00:28:00;2.67;;;1.30;;
12363;SDS011;6246;50.826;4.712;2023-04-08T00:30:26;3.17;;;1.20;;
12363;SDS011;6246;50.826;4.712;2023-04-08T00:32:52;2.70;;;1.40;;
12363;SDS011;6246;50.826;4.712;2023-04-08T00:35:18;2.27;;;1.00;;
12363;SDS011;6246;50.826;4.712;2023-04-08T00:37:45;1.97;;;1.10;;
12363;SDS011;6246;50.826;4.712;2023-04-08T00:40:11;2.17;;;1.10;;
12363;SDS011;6246;50.826;4.712;2023-04-08T00:42:37;2.13;;;1.23;;
12363;SDS011;6246;50.826;4.712;2023-04-08T00:45:04;1.87;;;1.13;;
12363;SDS011;6246;50.826;4.712;2023-04-08T00:47:30;3.30;;;1.00;;
12363;SDS011;6246;50.826;4.712;2023-04-08T00:49:56;4.33;;;1.23;;
12363;SDS011;6246;50.826;4.712;2023-04-08T00:52:22;1.60;;;1.00;;
12363;SDS011;6246;50.826;4.712;2023-04-08T00:54:48;1.57;;;1.17;;
12363;SDS011;6246;50.826;4.712;2023-04-08T00:57:14;1.50;;;1.00;;
12363;SDS011;6246;50.826;4.712;2023-04-08T00:59:41;1.57;;;1.13;;
12363;SDS011;6246;50.826;4.712;2023-04-08T01:04:43;1.53;;;1.37;;
12363;SDS011;6246;50.826;4.712;2023-04-08T01:07:12;1.93;;;0.93;;
12363;SDS011;6246;50.826;4.712;2023-04-08T01:09:40;1.60;;;1.00;;
12363;SDS011;6246;50.826;4.712;2023-04-08T01:12:08;0.93;;;0.90;;
12363;SDS011;6246;50.826;4.712;2023-04-08T01:14:38;1.93;;;1.20;;
12363;SDS011;6246;50.826;4.712;2023-04-08T01:17:04;3.10;;;0.90;;
12363;SDS011;6246;50.826;4.712;2023-04-08T01:19:32;1.90;;;1.37;;
12363;SDS011;6246;50.826;4.712;2023-04-08T01:22:01;1.40;;;1.10;;
12363;SDS011;6246;50.826;4.712;2023-04-08T01:24:32;2.03;;;1.20;;
12363;SDS011;6246;50.826;4.712;2023-04-08T01:27:01;2.40;;;1.03;;
12363;SDS011;6246;50.826;4.712;2023-04-08T01:29:27;1.30;;;1.00;;
12363;SDS011;6246;50.826;4.712;2023-04-08T01:31:54;2.00;;;1.23;;
12363;SDS011;6246;50.826;4.712;2023-04-08T01:34:21;1.47;;;1.10;;
12363;SDS011;6246;50.826;4.712;2023-04-08T01:36:47;1.87;;;1.10;;
12363;SDS011;6246;50.826;4.712;2023-04-08T01:39:14;2.17;;;1.10;;
12363;SDS011;6246;50.826;4.712;2023-04-08T01:41:41;1.80;;;1.07;;
12363;SDS011;6246;50.826;4.712;2023-04-08T01:44:08;1.63;;;1.33;;
12363;SDS011;6246;50.826;4.712;2023-04-08T01:46:34;1.10;;;1.00;;
12363;SDS011;6246;50.826;4.712;2023-04-08T01:49:01;1.37;;;1.10;;
12363;SDS011;6246;50.826;4.712;2023-04-08T01:51:28;1.57;;;1.20;;
12363;SDS011;6246;50.826;4.712;2023-04-08T01:53:55;2.50;;;1.20;;
12363;SDS011;6246;50.826;4.712;2023-04-08T01:56:21;2.67;;;1.23;;
12363;SDS011;6246;50.826;4.712;2023-04-08T01:58:49;2.40;;;1.30;;
12363;SDS011;6246;50.826;4.712;2023-04-08T02:01:17;2.53;;;1.30;;
12363;SDS011;6246;50.826;4.712;2023-04-08T02:03:43;1.73;;;1.10;;
12363;SDS011;6246;50.826;4.712;2023-04-08T02:06:10;1.43;;;1.20;;
12363;SDS011;6246;50.826;4.712;2023-04-08T02:08:36;2.47;;;1.23;;
12363;SDS011;6246;50.826;4.712;2023-04-08T02:11:02;2.10;;;1.00;;
12363;SDS011;6246;50.826;4.712;2023-04-08T02:13:29;1.27;;;0.97;;
12363;SDS011;6246;50.826;4.712;2023-04-08T02:16:02;1.33;;;1.20;;
12363;SDS011;6246;50.826;4.712;2023-04-08T02:18:28;1.83;;;1.03;;
12363;SDS011;6246;50.826;4.712;2023-04-08T02:21:07;3.57;;;1.43;;
12363;SDS011;6246;50.826;4.712;2023-04-08T02:23:34;1.50;;;1.10;;
12363;SDS011;6246;50.826;4.712;2023-04-08T02:26:02;0.87;;;0.87;;
12363;SDS011;6246;50.826;4.712;2023-04-08T02:28:29;1.80;;;0.93;;
12363;SDS011;6246;50.826;4.712;2023-04-08T02:30:56;1.73;;;1.10;;
12363;SDS011;6246;50.826;4.712;2023-04-08T02:33:24;1.43;;;1.13;;
12363;SDS011;6246;50.826;4.712;2023-04-08T02:35:51;1.70;;;1.07;;
12363;SDS011;6246;50.826;4.712;2023-04-08T02:38:18;2.90;;;1.03;;
12363;SDS011;6246;50.826;4.712;2023-04-08T02:40:45;2.43;;;1.17;;
12363;SDS011;6246;50.826;4.712;2023-04-08T02:43:11;1.70;;;1.00;;
12363;SDS011;6246;50.826;4.712;2023-04-08T02:45:37;1.97;;;1.27;;
12363;SDS011;6246;50.826;4.712;2023-04-08T02:48:05;1.33;;;1.20;;
12363;SDS011;6246;50.826;4.712;2023-04-08T02:50:31;1.23;;;1.13;;
12363;SDS011;6246;50.826;4.712;2023-04-08T02:52:57;1.47;;;1.00;;
12363;SDS011;6246;50.826;4.712;2023-04-08T02:55:23;1.33;;;1.10;;
12363;SDS011;6246;50.826;4.712;2023-04-08T02:57:50;3.37;;;1.20;;
12363;SDS011;6246;50.826;4.712;2023-04-08T03:00:16;1.90;;;1.10;;
12363;SDS011;6246;50.826;4.712;2023-04-08T03:02:42;0.97;;;0.80;;
12363;SDS011;6246;50.826;4.712;2023-04-08T03:05:08;1.27;;;0.90;;
12363;SDS011;6246;50.826;4.712;2023-04-08T03:07:34;3.30;;;1.53;;
12363;SDS011;6246;50.826;4.712;2023-04-08T03:10:00;1.40;;;1.10;;
12363;SDS011;6246;50.826;4.712;2023-04-08T03:12:26;1.37;;;0.93;;
12363;SDS011;6246;50.826;4.712;2023-04-08T03:14:52;2.30;;;1.27;;
12363;SDS011;6246;50.826;4.712;2023-04-08T03:17:19;2.60;;;1.53;;
12363;SDS011;6246;50.826;4.712;2023-04-08T03:19:45;1.40;;;0.90;;
12363;SDS011;6246;50.826;4.712;2023-04-08T03:22:11;1.87;;;1.17;;
12363;SDS011;6246;50.826;4.712;2023-04-08T03:24:38;3.17;;;1.40;;
12363;SDS011;6246;50.826;4.712;2023-04-08T03:27:04;1.80;;;1.40;;
12363;SDS011;6246;50.826;4.712;2023-04-08T03:29:32;2.47;;;1.40;;
12363;SDS011;6246;50.826;4.712;2023-04-08T03:31:58;1.87;;;1.20;;
12363;SDS011;6246;50.826;4.712;2023-04-08T03:34:24;2.73;;;1.27;;
12363;SDS011;6246;50.826;4.712;2023-04-08T03:36:50;2.30;;;1.40;;
12363;SDS011;6246;50.826;4.712;2023-04-08T03:39:16;2.63;;;1.23;;
12363;SDS011;6246;50.826;4.712;2023-04-08T03:41:42;2.43;;;1.30;;
12363;SDS011;6246;50.826;4.712;2023-04-08T03:44:08;1.67;;;1.30;;
12363;SDS011;6246;50.826;4.712;2023-04-08T03:46:34;2.53;;;1.40;;
12363;SDS011;6246;50.826;4.712;2023-04-08T03:49:00;2.43;;;1.53;;
12363;SDS011;6246;50.826;4.712;2023-04-08T03:51:26;2.10;;;1.10;;
12363;SDS011;6246;50.826;4.712;2023-04-08T03:53:53;0.77;;;0.77;;
12363;SDS011;6246;50.826;4.712;2023-04-08T03:56:19;2.17;;;1.30;;
12363;SDS011;6246;50.826;4.712;2023-04-08T03:58:45;1.83;;;1.17;;
12363;SDS011;6246;50.826;4.712;2023-04-08T04:01:11;3.27;;;1.20;;
12363;SDS011;6246;50.826;4.712;2023-04-08T04:03:37;1.30;;;1.20;;
12363;SDS011;6246;50.826;4.712;2023-04-08T04:06:03;1.70;;;1.20;;
12363;SDS011;6246;50.826;4.712;2023-04-08T04:08:30;2.10;;;1.37;;
12363;SDS011;6246;50.826;4.712;2023-04-08T04:10:57;1.80;;;1.40;;
12363;SDS011;6246;50.826;4.712;2023-04-08T04:13:23;1.47;;;1.20;;
12363;SDS011;6246;50.826;4.712;2023-04-08T04:15:49;2.57;;;1.70;;
12363;SDS011;6246;50.826;4.712;2023-04-08T04:18:15;2.00;;;1.10;;
12363;SDS011;6246;50.826;4.712;2023-04-08T04:20:41;1.67;;;1.07;;
12363;SDS011;6246;50.826;4.712;2023-04-08T04:23:07;2.77;;;1.53;;
12363;SDS011;6246;50.826;4.712;2023-04-08T04:25:33;2.13;;;1.53;;
12363;SDS011;6246;50.826;4.712;2023-04-08T04:27:59;2.37;;;1.37;;
12363;SDS011;6246;50.826;4.712;2023-04-08T04:30:27;1.70;;;1.10;;
12363;SDS011;6246;50.826;4.712;2023-04-08T04:32:53;1.70;;;1.17;;
12363;SDS011;6246;50.826;4.712;2023-04-08T04:35:20;1.50;;;1.00;;
12363;SDS011;6246;50.826;4.712;2023-04-08T04:37:46;2.23;;;1.17;;
12363;SDS011;6246;50.826;4.712;2023-04-08T04:40:14;2.10;;;1.10;;
12363;SDS011;6246;50.826;4.712;2023-04-08T04:42:40;2.40;;;1.77;;
12363;SDS011;6246;50.826;4.712;2023-04-08T04:45:06;2.33;;;1.20;;
12363;SDS011;6246;50.826;4.712;2023-04-08T04:47:33;3.53;;;1.70;;
12363;SDS011;6246;50.826;4.712;2023-04-08T04:49:59;2.07;;;1.20;;
12363;SDS011;6246;50.826;4.712;2023-04-08T04:52:25;1.93;;;1.20;;
12363;SDS011;6246;50.826;4.712;2023-04-08T04:54:51;2.63;;;1.60;;
12363;SDS011;6246;50.826;4.712;2023-04-08T04:57:17;2.13;;;1.47;;
12363;SDS011;6246;50.826;4.712;2023-04-08T04:59:43;2.40;;;1.47;;
12363;SDS011;6246;50.826;4.712;2023-04-08T05:02:09;2.13;;;1.50;;
12363;SDS011;6246;50.826;4.712;2023-04-08T05:04:35;1.60;;;1.00;;
12363;SDS011;6246;50.826;4.712;2023-04-08T05:07:01;1.50;;;1.40;;
12363;SDS011;6246;50.826;4.712;2023-04-08T05:09:28;2.37;;;1.40;;
12363;SDS011;6246;50.826;4.712;2023-04-08T05:11:54;1.70;;;1.17;;
12363;SDS011;6246;50.826;4.712;2023-04-08T05:14:20;2.23;;;1.20;;
12363;SDS011;6246;50.826;4.712;2023-04-08T05:16:46;2.53;;;1.60;;
12363;SDS011;6246;50.826;4.712;2023-04-08T05:19:12;2.40;;;1.27;;
12363;SDS011;6246;50.826;4.712;2023-04-08T05:21:38;1.30;;;1.17;;
12363;SDS011;6246;50.826;4.712;2023-04-08T05:24:05;2.10;;;1.40;;
12363;SDS011;6246;50.826;4.712;2023-04-08T05:26:31;1.23;;;1.20;;
12363;SDS011;6246;50.826;4.712;2023-04-08T05:28:57;2.77;;;1.40;;
12363;SDS011;6246;50.826;4.712;2023-04-08T05:31:23;2.67;;;1.43;;
12363;SDS011;6246;50.826;4.712;2023-04-08T05:33:49;2.17;;;1.80;;
12363;SDS011;6246;50.826;4.712;2023-04-08T05:36:15;3.23;;;1.70;;
12363;SDS011;6246;50.826;4.712;2023-04-08T05:38:41;1.30;;;1.20;;
12363;SDS011;6246;50.826;4.712;2023-04-08T05:41:08;2.03;;;1.33;;
12363;SDS011;6246;50.826;4.712;2023-04-08T05:43:34;1.93;;;1.27;;
12363;SDS011;6246;50.826;4.712;2023-04-08T05:46:07;2.57;;;1.40;;
12363;SDS011;6246;50.826;4.712;2023-04-08T05:48:33;3.43;;;1.60;;
12363;SDS011;6246;50.826;4.712;2023-04-08T05:51:00;3.17;;;1.30;;
12363;SDS011;6246;50.826;4.712;2023-04-08T05:53:26;2.23;;;1.73;;
12363;SDS011;6246;50.826;4.712;2023-04-08T05:55:52;2.47;;;1.70;;
12363;SDS011;6246;50.826;4.712;2023-04-08T05:58:18;2.37;;;1.60;;
12363;SDS011;6246;50.826;4.712;2023-04-08T06:00:44;2.23;;;1.37;;
12363;SDS011;6246;50.826;4.712;2023-04-08T06:03:10;1.63;;;1.53;;
12363;SDS011;6246;50.826;4.712;2023-04-08T06:05:36;2.50;;;1.90;;
12363;SDS011;6246;50.826;4.712;2023-04-08T06:08:02;3.70;;;1.90;;
12363;SDS011;6246;50.826;4.712;2023-04-08T06:10:28;1.93;;;1.63;;
12363;SDS011;6246;50.826;4.712;2023-04-08T06:12:54;1.63;;;1.53;;
12363;SDS011;6246;50.826;4.712;2023-04-08T06:15:20;2.77;;;2.00;;
12363;SDS011;6246;50.826;4.712;2023-04-08T06:17:46;2.57;;;1.60;;
12363;SDS011;6246;50.826;4.712;2023-04-08T06:20:12;1.73;;;1.43;;
12363;SDS011;6246;50.826;4.712;2023-04-08T06:22:38;3.20;;;1.80;;
12363;SDS011;6246;50.826;4.712;2023-04-08T06:25:04;1.87;;;1.40;;
12363;SDS011;6246;50.826;4.712;2023-04-08T06:27:30;3.83;;;1.77;;
12363;SDS011;6246;50.826;4.712;2023-04-08T06:29:56;1.30;;;1.20;;
12363;SDS011;6246;50.826;4.712;2023-04-08T06:32:23;2.63;;;1.70;;
12363;SDS011;6246;50.826;4.712;2023-04-08T06:34:49;2.13;;;1.50;;
12363;SDS011;6246;50.826;4.712;2023-04-08T06:37:15;2.73;;;1.70;;
12363;SDS011;6246;50.826;4.712;2023-04-08T06:39:41;2.03;;;1.73;;
12363;SDS011;6246;50.826;4.712;2023-04-08T06:42:08;2.07;;;1.60;;
12363;SDS011;6246;50.826;4.712;2023-04-08T06:44:34;1.63;;;1.30;;
12363;SDS011;6246;50.826;4.712;2023-04-08T06:47:00;1.97;;;1.30;;
12363;SDS011;6246;50.826;4.712;2023-04-08T06:49:26;1.87;;;1.37;;
12363;SDS011;6246;50.826;4.712;2023-04-08T06:51:52;2.73;;;2.13;;
12363;SDS011;6246;50.826;4.712;2023-04-08T06:54:18;1.93;;;1.60;;
12363;SDS011;6246;50.826;4.712;2023-04-08T06:56:45;3.73;;;2.03;;
12363;SDS011;6246;50.826;4.712;2023-04-08T06:59:11;1.80;;;1.33;;
12363;SDS011;6246;50.826;4.712;2023-04-08T07:01:37;2.87;;;1.50;;
12363;SDS011;6246;50.826;4.712;2023-04-08T07:04:03;2.27;;;1.43;;
12363;SDS011;6246;50.826;4.712;2023-04-08T07:06:29;2.80;;;1.63;;
12363;SDS011;6246;50.826;4.712;2023-04-08T07:08:55;3.47;;;1.90;;
12363;SDS011;6246;50.826;4.712;2023-04-08T07:11:21;2.60;;;1.60;;
12363;SDS011;6246;50.826;4.712;2023-04-08T07:13:47;1.83;;;1.73;;
12363;SDS011;6246;50.826;4.712;2023-04-08T07:16:13;3.37;;;1.97;;
12363;SDS011;6246;50.826;4.712;2023-04-08T07:18:39;2.70;;;1.83;;
12363;SDS011;6246;50.826;4.712;2023-04-08T07:21:06;1.60;;;1.33;;
12363;SDS011;6246;50.826;4.712;2023-04-08T07:23:32;3.77;;;1.77;;
12363;SDS011;6246;50.826;4.712;2023-04-08T07:26:02;2.77;;;2.00;;
12363;SDS011;6246;50.826;4.712;2023-04-08T07:28:29;1.50;;;1.40;;
12363;SDS011;6246;50.826;4.712;2023-04-08T07:30:55;3.43;;;1.90;;
12363;SDS011;6246;50.826;4.712;2023-04-08T07:33:21;2.10;;;1.47;;
12363;SDS011;6246;50.826;4.712;2023-04-08T07:35:47;1.97;;;1.70;;
12363;SDS011;6246;50.826;4.712;2023-04-08T07:38:13;3.13;;;1.90;;
12363;SDS011;6246;50.826;4.712;2023-04-08T07:40:40;2.23;;;2.00;;
12363;SDS011;6246;50.826;4.712;2023-04-08T07:43:06;1.60;;;1.50;;
12363;SDS011;6246;50.826;4.712;2023-04-08T07:45:33;2.00;;;1.80;;
12363;SDS011;6246;50.826;4.712;2023-04-08T07:47:59;2.07;;;1.50;;
12363;SDS011;6246;50.826;4.712;2023-04-08T07:50:25;2.67;;;1.97;;
12363;SDS011;6246;50.826;4.712;2023-04-08T07:52:51;5.90;;;1.73;;
12363;SDS011;6246;50.826;4.712;2023-04-08T07:55:17;12.37;;;2.73;;
12363;SDS011;6246;50.826;4.712;2023-04-08T07:57:43;7.50;;;2.57;;
12363;SDS011;6246;50.826;4.712;2023-04-08T08:00:10;3.33;;;1.63;;
12363;SDS011;6246;50.826;4.712;2023-04-08T08:02:36;7.47;;;2.90;;
12363;SDS011;6246;50.826;4.712;2023-04-08T08:05:02;8.77;;;2.80;;
12363;SDS011;6246;50.826;4.712;2023-04-08T08:07:28;5.63;;;2.07;;
12363;SDS011;6246;50.826;4.712;2023-04-08T08:09:54;11.60;;;2.43;;
12363;SDS011;6246;50.826;4.712;2023-04-08T08:12:20;6.00;;;2.00;;
12363;SDS011;6246;50.826;4.712;2023-04-08T08:14:46;9.93;;;2.97;;
12363;SDS011;6246;50.826;4.712;2023-04-08T08:17:12;7.00;;;1.60;;
12363;SDS011;6246;50.826;4.712;2023-04-08T08:19:38;4.37;;;1.80;;
12363;SDS011;6246;50.826;4.712;2023-04-08T08:22:05;8.27;;;2.00;;
12363;SDS011;6246;50.826;4.712;2023-04-08T08:24:31;6.17;;;2.03;;
12363;SDS011;6246;50.826;4.712;2023-04-08T08:26:57;6.10;;;2.23;;
12363;SDS011;6246;50.826;4.712;2023-04-08T08:29:23;10.03;;;2.17;;
12363;SDS011;6246;50.826;4.712;2023-04-08T08:31:49;7.27;;;2.20;;
12363;SDS011;6246;50.826;4.712;2023-04-08T08:34:15;10.93;;;1.90;;
12363;SDS011;6246;50.826;4.712;2023-04-08T08:36:41;7.70;;;1.97;;
12363;SDS011;6246;50.826;4.712;2023-04-08T08:39:07;5.80;;;1.73;;
12363;SDS011;6246;50.826;4.712;2023-04-08T08:41:33;9.57;;;2.47;;
12363;SDS011;6246;50.826;4.712;2023-04-08T08:44:01;4.93;;;1.67;;
12363;SDS011;6246;50.826;4.712;2023-04-08T08:46:27;5.67;;;1.60;;
12363;SDS011;6246;50.826;4.712;2023-04-08T08:48:53;5.90;;;1.60;;
12363;SDS011;6246;50.826;4.712;2023-04-08T08:51:20;5.80;;;1.77;;
12363;SDS011;6246;50.826;4.712;2023-04-08T08:53:46;9.13;;;1.83;;
12363;SDS011;6246;50.826;4.712;2023-04-08T08:56:12;5.53;;;2.03;;
12363;SDS011;6246;50.826;4.712;2023-04-08T08:58:38;3.37;;;1.60;;
12363;SDS011;6246;50.826;4.712;2023-04-08T09:04:05;4.53;;;1.67;;
12363;SDS011;6246;50.826;4.712;2023-04-08T09:06:31;6.13;;;1.63;;
12363;SDS011;6246;50.826;4.712;2023-04-08T09:08:57;7.07;;;1.93;;
12363;SDS011;6246;50.826;4.712;2023-04-08T09:11:23;5.97;;;1.70;;
12363;SDS011;6246;50.826;4.712;2023-04-08T09:13:49;2.87;;;1.37;;
12363;SDS011;6246;50.826;4.712;2023-04-08T09:16:16;7.07;;;1.80;;
12363;SDS011;6246;50.826;4.712;2023-04-08T09:18:43;3.53;;;1.50;;
12363;SDS011;6246;50.826;4.712;2023-04-08T09:21:10;2.03;;;1.20;;
12363;SDS011;6246;50.826;4.712;2023-04-08T09:23:42;3.90;;;1.67;;
12363;SDS011;6246;50.826;4.712;2023-04-08T09:26:08;3.80;;;1.30;;
12363;SDS011;6246;50.826;4.712;2023-04-08T09:28:35;6.63;;;1.73;;
12363;SDS011;6246;50.826;4.712;2023-04-08T09:31:09;9.37;;;1.67;;
12363;SDS011;6246;50.826;4.712;2023-04-08T09:33:42;5.33;;;1.33;;
12363;SDS011;6246;50.826;4.712;2023-04-08T09:36:08;3.27;;;1.47;;
12363;SDS011;6246;50.826;4.712;2023-04-08T09:38:34;3.30;;;1.67;;
12363;SDS011;6246;50.826;4.712;2023-04-08T09:41:01;3.83;;;1.77;;
12363;SDS011;6246;50.826;4.712;2023-04-08T09:43:29;4.07;;;1.37;;
12363;SDS011;6246;50.826;4.712;2023-04-08T09:45:57;5.30;;;1.10;;
12363;SDS011;6246;50.826;4.712;2023-04-08T09:48:25;5.67;;;1.77;;
12363;SDS011;6246;50.826;4.712;2023-04-08T09:50:52;4.03;;;1.40;;
12363;SDS011;6246;50.826;4.712;2023-04-08T09:53:27;3.97;;;1.40;;
12363;SDS011;6246;50.826;4.712;2023-04-08T09:55:55;2.93;;;1.30;;
12363;SDS011;6246;50.826;4.712;2023-04-08T09:58:24;1.97;;;1.10;;
12363;SDS011;6246;50.826;4.712;2023-04-08T10:00:53;5.57;;;1.83;;
12363;SDS011;6246;50.826;4.712;2023-04-08T10:03:29;4.03;;;0.83;;
12363;SDS011;6246;50.826;4.712;2023-04-08T10:06:00;3.03;;;1.40;;
12363;SDS011;6246;50.826;4.712;2023-04-08T10:08:27;3.53;;;1.33;;
12363;SDS011;6246;50.826;4.712;2023-04-08T10:10:53;3.07;;;1.17;;
12363;SDS011;6246;50.826;4.712;2023-04-08T10:13:20;2.70;;;1.67;;
12363;SDS011;6246;50.826;4.712;2023-04-08T10:15:46;4.13;;;1.40;;
12363;SDS011;6246;50.826;4.712;2023-04-08T10:20:42;2.50;;;1.20;;
12363;SDS011;6246;50.826;4.712;2023-04-08T10:23:12;1.30;;;0.83;;
12363;SDS011;6246;50.826;4.712;2023-04-08T10:30:44;1.80;;;1.20;;
12363;SDS011;6246;50.826;4.712;2023-04-08T10:35:38;4.10;;;1.23;;
12363;SDS011;6246;50.826;4.712;2023-04-08T10:38:10;2.87;;;1.47;;
12363;SDS011;6246;50.826;4.712;2023-04-08T10:40:37;4.00;;;1.20;;
12363;SDS011;6246;50.826;4.712;2023-04-08T10:43:05;5.03;;;1.40;;
12363;SDS011;6246;50.826;4.712;2023-04-08T10:45:32;3.23;;;1.17;;
12363;SDS011;6246;50.826;4.712;2023-04-08T10:48:19;3.03;;;1.20;;
12363;SDS011;6246;50.826;4.712;2023-04-08T10:50:51;1.37;;;1.20;;
12363;SDS011;6246;50.826;4.712;2023-04-08T10:53:22;3.53;;;1.17;;
12363;SDS011;6246;50.826;4.712;2023-04-08T10:55:48;4.33;;;1.40;;
12363;SDS011;6246;50.826;4.712;2023-04-08T10:58:15;2.60;;;1.20;;
12363;SDS011;6246;50.826;4.712;2023-04-08T11:00:41;1.97;;;0.80;;
12363;SDS011;6246;50.826;4.712;2023-04-08T11:03:10;1.97;;;1.40;;
12363;SDS011;6246;50.826;4.712;2023-04-08T11:05:37;4.23;;;1.70;;
12363;SDS011;6246;50.826;4.712;2023-04-08T11:08:04;2.03;;;1.30;;
12363;SDS011;6246;50.826;4.712;2023-04-08T11:10:30;3.87;;;1.10;;
12363;SDS011;6246;50.826;4.712;2023-04-08T11:13:01;3.37;;;1.10;;
12363;SDS011;6246;50.826;4.712;2023-04-08T11:15:28;5.77;;;1.43;;
12363;SDS011;6246;50.826;4.712;2023-04-08T11:17:55;2.43;;;0.87;;
12363;SDS011;6246;50.826;4.712;2023-04-08T11:20:21;3.37;;;1.27;;
12363;SDS011;6246;50.826;4.712;2023-04-08T11:22:47;4.90;;;1.30;;
12363;SDS011;6246;50.826;4.712;2023-04-08T11:25:13;3.43;;;1.00;;
12363;SDS011;6246;50.826;4.712;2023-04-08T11:27:39;5.20;;;1.50;;
12363;SDS011;6246;50.826;4.712;2023-04-08T11:30:06;4.33;;;1.60;;
12363;SDS011;6246;50.826;4.712;2023-04-08T11:32:32;2.77;;;1.27;;
12363;SDS011;6246;50.826;4.712;2023-04-08T11:34:59;4.07;;;1.27;;
12363;SDS011;6246;50.826;4.712;2023-04-08T11:37:26;1.97;;;1.17;;
12363;SDS011;6246;50.826;4.712;2023-04-08T11:39:53;3.23;;;1.43;;
12363;SDS011;6246;50.826;4.712;2023-04-08T11:42:30;3.20;;;0.90;;
12363;SDS011;6246;50.826;4.712;2023-04-08T11:44:56;3.10;;;1.40;;
12363;SDS011;6246;50.826;4.712;2023-04-08T11:47:32;4.43;;;2.20;;
12363;SDS011;6246;50.826;4.712;2023-04-08T11:49:59;7.30;;;3.50;;
12363;SDS011;6246;50.826;4.712;2023-04-08T11:52:48;7.77;;;3.60;;
12363;SDS011;6246;50.826;4.712;2023-04-08T11:55:23;5.83;;;3.50;;
12363;SDS011;6246;50.826;4.712;2023-04-08T11:57:49;5.20;;;2.93;;
12363;SDS011;6246;50.826;4.712;2023-04-08T12:00:16;7.03;;;3.00;;
12363;SDS011;6246;50.826;4.712;2023-04-08T12:02:43;6.90;;;3.03;;
12363;SDS011;6246;50.826;4.712;2023-04-08T12:05:09;5.37;;;2.53;;
12363;SDS011;6246;50.826;4.712;2023-04-08T12:07:35;5.10;;;2.97;;
12363;SDS011;6246;50.826;4.712;2023-04-08T12:10:02;8.00;;;2.73;;
12363;SDS011;6246;50.826;4.712;2023-04-08T12:12:28;7.23;;;2.80;;
12363;SDS011;6246;50.826;4.712;2023-04-08T12:14:54;6.23;;;2.73;;
12363;SDS011;6246;50.826;4.712;2023-04-08T12:17:20;7.23;;;2.70;;
12363;SDS011;6246;50.826;4.712;2023-04-08T12:19:46;6.43;;;2.90;;
12363;SDS011;6246;50.826;4.712;2023-04-08T12:22:12;6.47;;;2.70;;
12363;SDS011;6246;50.826;4.712;2023-04-08T12:24:38;5.53;;;2.43;;
12363;SDS011;6246;50.826;4.712;2023-04-08T12:27:04;5.70;;;2.30;;
12363;SDS011;6246;50.826;4.712;2023-04-08T12:29:30;8.43;;;2.57;;
12363;SDS011;6246;50.826;4.712;2023-04-08T12:31:57;6.30;;;2.40;;
12363;SDS011;6246;50.826;4.712;2023-04-08T12:34:23;3.47;;;2.33;;
12363;SDS011;6246;50.826;4.712;2023-04-08T12:36:49;4.83;;;2.50;;
12363;SDS011;6246;50.826;4.712;2023-04-08T12:39:15;6.73;;;2.73;;
12363;SDS011;6246;50.826;4.712;2023-04-08T12:41:41;5.47;;;2.40;;
12363;SDS011;6246;50.826;4.712;2023-04-08T12:44:07;6.23;;;2.97;;
12363;SDS011;6246;50.826;4.712;2023-04-08T12:46:33;5.67;;;2.60;;
12363;SDS011;6246;50.826;4.712;2023-04-08T12:48:59;5.33;;;2.37;;
12363;SDS011;6246;50.826;4.712;2023-04-08T12:51:25;4.87;;;2.70;;
12363;SDS011;6246;50.826;4.712;2023-04-08T12:53:51;5.78;;;2.70;;
12363;SDS011;6246;50.826;4.712;2023-04-08T12:56:17;5.65;;;2.55;;
12363;SDS011;6246;50.826;4.712;2023-04-08T12:58:43;6.68;;;3.05;;
12363;SDS011;6246;50.826;4.712;2023-04-08T13:01:09;5.10;;;2.35;;
12363;SDS011;6246;50.826;4.712;2023-04-08T13:03:36;4.63;;;3.17;;
12363;SDS011;6246;50.826;4.712;2023-04-08T13:06:02;4.93;;;2.30;;
12363;SDS011;6246;50.826;4.712;2023-04-08T13:08:28;3.78;;;2.60;;
12363;SDS011;6246;50.826;4.712;2023-04-08T13:10:54;7.32;;;3.10;;
12363;SDS011;6246;50.826;4.712;2023-04-08T13:13:20;6.20;;;2.70;;
12363;SDS011;6246;50.826;4.712;2023-04-08T13:15:46;5.22;;;2.95;;
12363;SDS011;6246;50.826;4.712;2023-04-08T13:18:12;10.40;;;3.53;;
12363;SDS011;6246;50.826;4.712;2023-04-08T13:20:38;7.63;;;3.13;;
12363;SDS011;6246;50.826;4.712;2023-04-08T13:23:05;5.10;;;3.70;;
12363;SDS011;6246;50.826;4.712;2023-04-08T13:25:31;6.18;;;3.80;;
12363;SDS011;6246;50.826;4.712;2023-04-08T13:27:57;6.97;;;3.63;;
12363;SDS011;6246;50.826;4.712;2023-04-08T13:30:23;7.97;;;4.13;;
12363;SDS011;6246;50.826;4.712;2023-04-08T13:32:49;7.70;;;3.75;;
12363;SDS011;6246;50.826;4.712;2023-04-08T13:35:15;3.55;;;3.25;;
12363;SDS011;6246;50.826;4.712;2023-04-08T13:37:41;6.47;;;3.58;;
12363;SDS011;6246;50.826;4.712;2023-04-08T13:40:07;7.45;;;3.72;;
12363;SDS011;6246;50.826;4.712;2023-04-08T13:42:33;3.15;;;2.88;;
12363;SDS011;6246;50.826;4.712;2023-04-08T13:44:59;5.43;;;3.55;;
12363;SDS011;6246;50.826;4.712;2023-04-08T13:47:26;9.15;;;3.75;;
12363;SDS011;6246;50.826;4.712;2023-04-08T13:49:52;5.18;;;3.70;;
12363;SDS011;6246;50.826;4.712;2023-04-08T13:52:18;4.95;;;3.30;;
12363;SDS011;6246;50.826;4.712;2023-04-08T13:54:44;5.40;;;3.63;;
12363;SDS011;6246;50.826;4.712;2023-04-08T13:57:10;3.63;;;3.33;;
12363;SDS011;6246;50.826;4.712;2023-04-08T13:59:36;7.45;;;3.80;;
12363;SDS011;6246;50.826;4.712;2023-04-08T14:02:03;6.05;;;3.30;;
12363;SDS011;6246;50.826;4.712;2023-04-08T14:04:29;4.60;;;3.60;;
12363;SDS011;6246;50.826;4.712;2023-04-08T14:06:55;4.25;;;3.20;;
12363;SDS011;6246;50.826;4.712;2023-04-08T14:09:22;5.27;;;3.60;;
12363;SDS011;6246;50.826;4.712;2023-04-08T14:11:48;6.97;;;3.70;;
12363;SDS011;6246;50.826;4.712;2023-04-08T14:14:14;5.87;;;3.67;;
12363;SDS011;6246;50.826;4.712;2023-04-08T14:16:40;4.77;;;3.53;;
12363;SDS011;6246;50.826;4.712;2023-04-08T14:19:06;4.87;;;3.23;;
12363;SDS011;6246;50.826;4.712;2023-04-08T14:21:32;4.67;;;3.00;;
12363;SDS011;6246;50.826;4.712;2023-04-08T14:23:59;5.25;;;3.35;;
12363;SDS011;6246;50.826;4.712;2023-04-08T14:26:25;3.87;;;3.40;;
12363;SDS011;6246;50.826;4.712;2023-04-08T14:28:51;6.47;;;3.50;;
12363;SDS011;6246;50.826;4.712;2023-04-08T14:31:17;5.70;;;3.50;;
12363;SDS011;6246;50.826;4.712;2023-04-08T14:33:43;6.20;;;3.47;;
12363;SDS011;6246;50.826;4.712;2023-04-08T14:36:09;5.70;;;3.57;;
12363;SDS011;6246;50.826;4.712;2023-04-08T14:38:35;7.97;;;3.83;;
12363;SDS011;6246;50.826;4.712;2023-04-08T14:41:03;4.87;;;3.33;;
12363;SDS011;6246;50.826;4.712;2023-04-08T14:43:29;8.93;;;4.10;;
12363;SDS011;6246;50.826;4.712;2023-04-08T14:45:55;6.13;;;3.20;;
12363;SDS011;6246;50.826;4.712;2023-04-08T14:48:21;5.70;;;3.77;;
12363;SDS011;6246;50.826;4.712;2023-04-08T14:50:49;5.67;;;3.47;;
12363;SDS011;6246;50.826;4.712;2023-04-08T14:53:16;5.77;;;3.63;;
12363;SDS011;6246;50.826;4.712;2023-04-08T14:55:42;4.63;;;3.60;;
12363;SDS011;6246;50.826;4.712;2023-04-08T14:58:08;6.93;;;3.37;;
12363;SDS011;6246;50.826;4.712;2023-04-08T15:00:34;6.43;;;4.00;;
12363;SDS011;6246;50.826;4.712;2023-04-08T15:03:00;6.97;;;3.80;;
12363;SDS011;6246;50.826;4.712;2023-04-08T15:05:26;6.03;;;3.57;;
12363;SDS011;6246;50.826;4.712;2023-04-08T15:07:52;6.60;;;4.00;;
12363;SDS011;6246;50.826;4.712;2023-04-08T15:10:18;4.67;;;3.53;;
12363;SDS011;6246;50.826;4.712;2023-04-08T15:12:44;7.67;;;4.00;;